Flight Track Log - Related Links

Times and Time Zones

All times are in EDT time to prevent confusion due to time zone crossing. See the DAL3759 flight status page for this flight to view local times or setup timezone preferences in your user account.

Time Position Orientation Groundspeed Altitude Reporting Facility
EDT Latitude Longitude Course Direction KTS MPH feet Rate Location/Type
Wed 07:22:35 AM 42.1994 -83.3581 114° Southeast 169 194 1,400  Level Cleveland Center
Wed 07:23:49 AM 42.1383 -83.3806 195° South 216 249 4,400 2,468 Climbing Cleveland Center
Wed 07:24:56 AM 42.0700 -83.3636 170° South 272 313 7,200 2,538 Climbing Cleveland Center
Wed 07:25:00 AM 42.1463 -82.8901 101° East  Level FlightAware Approximate
Wed 07:25:33 AM 42.0614 -83.2878 99° East 278 320 8,800  Level Cleveland Center
Wed 07:26:00 AM 42.1155 -82.7380 98° East  Level FlightAware Approximate
Wed 07:26:33 AM 42.0558 -83.1756 94° East 316 364 10,100  Level Cleveland Center
Wed 07:27:00 AM 42.0992 -82.5810 114° Southeast  Level FlightAware Approximate
Wed 07:27:33 AM 42.0669 -83.0447 83° East 354 407 10,000  Level Cleveland Center
Wed 07:28:33 AM 42.0700 -82.9019 88° East 375 432 12,300 2,150 Climbing Cleveland Center
Wed 07:29:33 AM 42.0747 -82.7594 87° East 380 437 14,300 1,900 Climbing Cleveland Center
Wed 07:30:33 AM 42.0817 -82.6114 86° East 386 444 16,100 1,800 Climbing Cleveland Center
Wed 07:31:33 AM 42.0822 -82.4603 90° East 393 452 17,900 1,400 Climbing Cleveland Center
Wed 07:32:33 AM 42.0594 -82.3058 101° East 404 465 18,900 1,200 Climbing Cleveland Center
Wed 07:33:33 AM 42.0367 -82.1517 101° East 410 472 20,300 1,300 Climbing Cleveland Center
Wed 07:34:33 AM 41.9758 -82.0217 122° Southeast 417 480 21,500 850 Climbing Cleveland Center
Wed 07:35:33 AM 41.8811 -81.9331 145° Southeast 403 464 22,000 250 Climbing Cleveland Center
Wed 07:36:33 AM 41.7842 -81.8389 144° Southeast 421 484 22,000 550 Level Cleveland Center
Wed 07:37:33 AM 41.6872 -81.7481 145° Southeast 431 496 23,100 1,000 Climbing Cleveland Center
Wed 07:38:33 AM 41.5797 -81.6492 145° Southeast 431 496 24,000 800 Climbing Cleveland Center
Wed 07:39:33 AM 41.4719 -81.5892 157° South 423 487 24,700 700 Climbing Cleveland Center
Wed 07:40:33 AM 41.3703 -81.5350 158° South 423 487 25,400 650 Climbing Cleveland Center
Wed 07:41:33 AM 41.2581 -81.4725 157° South 428 493 26,000 800 Climbing Cleveland Center
Wed 07:42:33 AM 41.1481 -81.4131 158° South 433 498 27,000 1,050 Climbing Cleveland Center
Wed 07:43:33 AM 41.0319 -81.3539 159° South 438 504 28,100 1,000 Climbing Cleveland Center
Wed 07:44:33 AM 40.9239 -81.2975 158° South 431 496 29,000 450 Climbing Cleveland Center
Wed 07:45:33 AM 40.8117 -81.2361 158° South 436 502 29,000  Level Cleveland Center
Wed 07:46:33 AM 40.6972 -81.1747 158° South 442 509 29,000  Level Cleveland Center
Wed 07:47:33 AM 40.5683 -81.0997 156° South 451 519 29,000  Level Cleveland Center
Wed 07:48:33 AM 40.4561 -81.0114 149° Southeast 456 525 29,000  Level Cleveland Center
Wed 07:49:33 AM 40.3419 -80.9236 150° Southeast 472 543 29,000  Level Cleveland Center
Wed 07:50:33 AM 40.2294 -80.8386 150° Southeast 472 543 29,000  Level Cleveland Center
Wed 07:51:33 AM 40.1169 -80.7514 149° Southeast 472 543 29,000  Level Cleveland Center
Wed 07:52:33 AM 40.0089 -80.6672 149° Southeast 466 536 29,000  Level Cleveland Center
Wed 07:53:33 AM 39.8983 -80.5831 150° Southeast 466 536 29,000  Level Cleveland Center
Wed 07:54:33 AM 39.7858 -80.4967 149° Southeast 466 536 29,000  Level Cleveland Center
Wed 07:56:39 AM 39.5683 -80.3325 150° Southeast 446 513 29,000  Level Washington Center
Wed 07:57:37 AM 39.4589 -80.2500 150° Southeast 451 519 29,000  Level Washington Center
Wed 07:58:38 AM 39.3475 -80.1650 149° Southeast 456 525 29,000  Level Washington Center
Wed 07:59:39 AM 39.2381 -80.0831 150° Southeast 456 525 29,000  Level Washington Center
Wed 08:00:37 AM 39.1244 -80.0011 151° Southeast 456 525 29,000  Level Washington Center
Wed 08:01:38 AM 39.0044 -79.9192 152° Southeast 456 525 29,000  Level Washington Center
Wed 08:02:39 AM 38.8947 -79.8381 150° Southeast 450 518 29,000  Level Washington Center
Wed 08:03:39 AM 38.7828 -79.7569 151° Southeast 450 518 29,000  Level Washington Center
Wed 08:04:38 AM 38.6853 -79.6822 149° Southeast 450 518 29,000  Level Washington Center
Wed 08:05:38 AM 38.5733 -79.6017 151° Southeast 450 518 29,000 -347 Level Washington Center
Wed 08:06:39 AM 38.4656 -79.5189 149° Southeast 450 518 28,300 -843 Descending Washington Center
Wed 08:07:39 AM 38.3494 -79.4361 151° Southeast 462 532 27,300 -650 Descending Washington Center
Wed 08:08:39 AM 38.2250 -79.3450 150° Southeast 467 537 27,000 -151 Descending Washington Center
Wed 08:09:38 AM 38.1131 -79.2628 150° Southeast 467 537 27,000  Level Washington Center
Wed 08:10:38 AM 38.0008 -79.1808 150° Southeast 472 543 27,000 -248 Level Washington Center
Wed 08:11:39 AM 37.8972 -79.0839 144° Southeast 467 537 26,500 -756 Descending Washington Center
Wed 08:12:37 AM 37.8494 -78.9292 111° Southeast 450 518 25,500 -1,017 Descending Washington Center
Wed 08:13:37 AM 37.8117 -78.7881 109° East 457 526 24,500 -942 Descending Washington Center
Wed 08:14:38 AM 37.7656 -78.6339 111° Southeast 457 526 23,600 -942 Descending Washington Center
Wed 08:15:38 AM 37.7233 -78.4850 110° East 457 526 22,600 -1,000 Descending Washington Center
Wed 08:16:38 AM 37.6789 -78.3311 110° East 457 526 21,600 -793 Descending Washington Center
Wed 08:17:39 AM 37.6364 -78.1853 110° East 457 526 21,000 -298 Descending Washington Center
Wed 08:18:39 AM 37.5853 -78.0292 112° Southeast 445 512 21,000 -102 Level Washington Center
Wed 08:19:37 AM 37.5464 -77.8889 109° East 433 498 20,800 -1,119 Descending Washington Center
Wed 08:20:37 AM 37.5219 -77.7522 103° East 420 483 18,800 -2,132 Descending Washington Center
Wed 08:21:38 AM 37.5117 -77.6183 95° East 395 455 16,500 -1,388 Descending Washington Center
Wed 08:22:38 AM 37.5053 -77.5003 94° East 386 444 16,000 -250 Descending Washington Center
Wed 08:23:38 AM 37.4947 -77.3639 96° East 386 444 16,000  Level Washington Center
Wed 08:24:39 AM 37.4864 -77.2303 94° East 386 444 16,000  Level Washington Center
Wed 08:25:28 AM 37.4775 -77.1147 96° East 385 443 16,000  Level Washington Center
Wed 08:26:34 AM 37.4647 -76.9628 96° East 383 441 16,000  Level Washington Center
Wed 08:27:35 AM 37.4556 -76.8292 95° East 382 440 16,000 -52 Level Washington Center
Wed 08:28:30 AM 37.4486 -76.7061 94° East 382 440 15,900 -595 Descending Washington Center
Wed 08:29:36 AM 37.4247 -76.5647 102° East 374 430 14,800 -898 Descending Washington Center
Wed 08:30:37 AM 37.4047 -76.4283 100° East 374 430 14,000 -783 Descending Washington Center
Wed 08:31:31 AM 37.3511 -76.3442 129° Southeast 345 397 13,300 -1,388 Descending Washington Center
Wed 08:32:38 AM 37.2892 -76.2472 129° Southeast 311 358 11,200 -1,884 Descending Washington Center
Wed 08:33:32 AM 37.2436 -76.1764 129° Southeast 300 345 9,500 -1,930 Descending Washington Center
Wed 08:34:33 AM 37.1625 -76.1547 168° South 279 321 7,500 -1,902 Descending Washington Center
Wed 08:35:35 AM 37.0853 -76.1489 177° South 279 321 5,600 -1,230 Descending Washington Center
Wed 08:36:35 AM 37.0203 -76.1875 205° Southwest 256 295 5,000 -600 Descending Washington Center

Login

Don't have an account? Register now (free) for customized features, flight alerts, and more!